TimeEST,TemperatureF,Dew PointF,Humidity,Sea Level PressureIn,VisibilityMPH,Wind Direction,Wind SpeedMPH,Gust SpeedMPH,PrecipitationIn,Events,Conditions,WindDirDegrees,DateUTC
12:15 AM,47.7,47.7,100,30.00,2.5,Calm,Calm,-,N/A,,Unknown,0,2012-12-07 05:15:00
12:35 AM,45.1,45.1,100,29.99,2.5,Calm,Calm,-,N/A,,Unknown,0,2012-12-07 05:35:00
12:55 AM,45.1,45.1,100,30.00,4.0,Calm,Calm,-,N/A,,Unknown,0,2012-12-07 05:55:00
1:15 AM,45.1,45.1,100,29.99,2.0,Calm,Calm,-,N/A,,Unknown,0,2012-12-07 06:15:00
1:35 AM,45.1,45.1,100,29.99,2.5,Calm,Calm,-,N/A,,Unknown,0,2012-12-07 06:35:00
1:55 AM,45.1,45.1,100,29.99,2.5,Calm,Calm,-,N/A,,Overcast,0,2012-12-07 06:55:00
2:15 AM,45.1,45.1,100,29.99,3.0,Calm,Calm,-,N/A,,Overcast,0,2012-12-07 07:15:00
2:35 AM,45.1,45.1,100,29.99,4.0,Calm,Calm,-,N/A,,Overcast,0,2012-12-07 07:35:00
2:55 AM,45.1,45.1,100,29.99,4.0,Calm,Calm,-,N/A,,Overcast,0,2012-12-07 07:55:00
3:15 AM,45.1,45.1,100,29.99,4.0,Calm,Calm,-,N/A,,Overcast,0,2012-12-07 08:15:00
3:35 AM,45.5,45.5,100,29.99,4.0,Calm,Calm,-,N/A,,Overcast,0,2012-12-07 08:35:00
3:55 AM,47.7,47.7,100,29.99,4.0,Calm,Calm,-,N/A,,Overcast,0,2012-12-07 08:55:00
4:15 AM,47.7,47.7,100,29.99,3.0,Calm,Calm,-,N/A,,Overcast,0,2012-12-07 09:15:00
4:35 AM,47.7,47.7,100,29.98,3.0,Calm,Calm,-,N/A,,Overcast,0,2012-12-07 09:35:00
4:55 AM,47.7,47.7,100,29.98,2.5,Calm,Calm,-,N/A,,Overcast,0,2012-12-07 09:55:00
5:15 AM,47.7,47.7,100,29.98,0.5,Calm,Calm,-,N/A,Fog,Fog,0,2012-12-07 10:15:00
5:35 AM,47.7,47.7,100,29.99,0.5,Calm,Calm,-,N/A,Fog,Fog,0,2012-12-07 10:35:00
5:55 AM,47.7,47.7,100,29.98,0.5,Calm,Calm,-,N/A,Fog,Fog,0,2012-12-07 10:55:00
6:15 AM,47.7,47.7,100,29.98,0.2,Calm,Calm,-,N/A,Fog,Fog,0,2012-12-07 11:15:00
6:35 AM,47.7,47.7,100,29.98,0.2,Calm,Calm,-,N/A,Fog,Fog,0,2012-12-07 11:35:00
6:55 AM,47.7,47.7,100,29.99,0.2,Calm,Calm,-,N/A,Fog,Fog,0,2012-12-07 11:55:00
7:15 AM,47.7,47.7,100,30.00,0.2,Calm,Calm,-,N/A,Fog,Fog,0,2012-12-07 12:15:00
7:35 AM,47.7,47.7,100,29.99,0.2,Calm,Calm,-,N/A,Fog,Fog,0,2012-12-07 12:35:00
7:55 AM,47.7,47.7,100,29.99,0.2,Calm,Calm,-,N/A,Fog,Fog,0,2012-12-07 12:55:00
8:15 AM,47.7,47.7,100,29.99,0.2,Calm,Calm,-,N/A,Fog,Fog,0,2012-12-07 13:15:00
8:35 AM,47.7,47.7,100,30.00,0.2,Calm,Calm,-,N/A,Fog,Fog,0,2012-12-07 13:35:00
8:55 AM,47.7,47.7,100,30.00,0.5,Calm,Calm,-,N/A,Fog,Fog,0,2012-12-07 13:55:00
9:15 AM,47.7,47.7,100,30.00,0.5,Calm,Calm,-,N/A,Fog,Fog,0,2012-12-07 14:15:00
9:35 AM,47.7,47.7,100,30.01,0.8,Calm,Calm,-,N/A,,Overcast,0,2012-12-07 14:35:00
9:55 AM,47.7,47.7,100,30.00,0.8,Calm,Calm,-,N/A,Rain,Rain,0,2012-12-07 14:55:00
10:15 AM,47.7,47.7,100,30.00,0.8,Calm,Calm,-,N/A,,Drizzle,0,2012-12-07 15:15:00
10:35 AM,47.7,47.7,100,30.01,0.5,Calm,Calm,-,N/A,Rain,Rain,0,2012-12-07 15:35:00
10:55 AM,47.7,47.7,100,30.00,0.8,Calm,Calm,-,N/A,Rain,Rain,0,2012-12-07 15:55:00
11:15 AM,48.6,48.6,100,29.99,1.5,NE,3.5,-,N/A,Rain,Light Rain,40,2012-12-07 16:15:00
11:35 AM,49.1,49.1,100,29.98,2.0,Calm,Calm,-,N/A,Rain,Light Rain,0,2012-12-07 16:35:00
11:55 AM,49.1,49.1,100,29.98,3.0,NE,3.5,-,N/A,Rain,Light Rain,50,2012-12-07 16:55:00
12:15 PM,49.1,49.1,100,29.97,3.0,Calm,Calm,-,N/A,Rain,Light Rain,0,2012-12-07 17:15:00
12:35 PM,48.9,48.9,100,29.96,3.0,Calm,Calm,-,N/A,Rain,Light Rain,0,2012-12-07 17:35:00
12:55 PM,49.1,49.1,100,29.95,3.0,Calm,Calm,-,N/A,Rain,Light Rain,0,2012-12-07 17:55:00
1:15 PM,50.2,50.2,100,29.94,4.0,Calm,Calm,-,N/A,Rain,Light Rain,0,2012-12-07 18:15:00
1:35 PM,50.2,50.2,100,29.93,4.0,Calm,Calm,-,N/A,Rain,Rain,0,2012-12-07 18:35:00
1:55 PM,50.2,50.2,100,29.92,3.0,NE,3.5,-,N/A,Rain,Rain,40,2012-12-07 18:55:00
2:15 PM,50.2,50.2,100,29.91,5.0,ENE,5.8,-,N/A,,Overcast,60,2012-12-07 19:15:00
2:35 PM,50.2,50.2,100,29.90,10.0,ENE,3.5,-,N/A,,Overcast,70,2012-12-07 19:35:00
2:55 PM,50.2,50.2,100,29.89,7.0,NE,5.8,-,N/A,,Overcast,50,2012-12-07 19:55:00
3:15 PM,50.2,50.2,100,29.90,5.0,Calm,Calm,-,N/A,Rain,Rain,0,2012-12-07 20:15:00
3:35 PM,50.2,50.2,100,29.90,3.0,Calm,Calm,-,N/A,Rain,Rain,0,2012-12-07 20:35:00
3:55 PM,50.2,50.2,100,29.89,5.0,Calm,Calm,-,N/A,Rain,Rain,0,2012-12-07 20:55:00
4:15 PM,50.2,50.2,100,29.90,3.0,NNE,3.5,-,N/A,Rain,Rain,30,2012-12-07 21:15:00
4:35 PM,50.2,50.2,100,29.90,3.0,NE,4.6,-,N/A,Rain,Rain,40,2012-12-07 21:35:00
4:55 PM,50.0,50.0,100,29.89,2.5,ENE,5.8,-,N/A,Rain,Rain,70,2012-12-07 21:55:00
5:15 PM,50.2,50.2,100,29.89,5.0,NNE,3.5,-,N/A,,Overcast,20,2012-12-07 22:15:00
5:35 PM,50.2,50.2,100,29.89,5.0,Calm,Calm,-,N/A,Rain,Rain,0,2012-12-07 22:35:00
5:55 PM,49.6,49.6,100,29.89,3.0,Calm,Calm,-,N/A,Rain,Rain,0,2012-12-07 22:55:00
6:15 PM,49.6,49.6,100,29.89,2.5,Calm,Calm,-,N/A,Rain,Rain,0,2012-12-07 23:15:00
6:35 PM,50.0,50.0,100,29.88,3.0,Calm,Calm,-,N/A,Rain,Light Rain,0,2012-12-07 23:35:00
6:55 PM,50.2,50.2,100,29.88,2.5,Calm,Calm,-,N/A,,Overcast,0,2012-12-07 23:55:00
7:15 PM,50.2,50.2,100,29.88,2.5,Calm,Calm,-,N/A,,Overcast,0,2012-12-08 00:15:00
7:35 PM,50.2,50.2,100,29.88,2.5,Calm,Calm,-,N/A,,Overcast,0,2012-12-08 00:35:00
8:15 PM,50.2,50.2,100,29.87,3.0,Calm,Calm,-,N/A,,Overcast,0,2012-12-08 01:15:00
8:35 PM,52.2,52.2,100,29.87,4.0,Calm,Calm,-,N/A,,Overcast,0,2012-12-08 01:35:00
8:55 PM,52.7,52.7,100,29.86,5.0,SSW,3.5,-,N/A,,Overcast,200,2012-12-08 01:55:00
9:15 PM,52.7,52.7,100,29.86,4.0,SSW,3.5,-,N/A,,Overcast,210,2012-12-08 02:15:00
9:35 PM,52.7,52.7,100,29.85,4.0,SSW,3.5,-,N/A,,Overcast,210,2012-12-08 02:35:00
9:55 PM,52.7,52.7,100,29.85,4.0,SSW,4.6,-,N/A,,Overcast,200,2012-12-08 02:55:00
10:15 PM,52.7,52.7,100,29.85,4.0,WSW,5.8,-,N/A,Rain,Rain,240,2012-12-08 03:15:00
10:55 PM,52.7,52.7,100,29.85,7.0,WSW,6.9,-,N/A,,Overcast,240,2012-12-08 03:55:00
11:15 PM,52.7,52.7,100,29.85,7.0,SW,5.8,-,N/A,,Overcast,230,2012-12-08 04:15:00
11:35 PM,52.7,52.7,100,29.86,7.0,SW,5.8,-,N/A,,Overcast,230,2012-12-08 04:35:00
11:55 PM,52.7,52.7,100,29.86,7.0,SW,4.6,-,N/A,,Overcast,230,2012-12-08 04:55:00